Time;durP1;ratioP1;P1;durP2;ratioP2;P2;SDS_P1;SDS_P2;PMS_P1;PMS_P2;Temp;Humidity;BMP_temperature;BMP_pressure;BME280_temperature;BME280_humidity;BME280_pressure;Samples;Min_cycle;Max_cycle;Signal;HPM_P1;HPM_P2
2023/04/24 00:03:21;;;;;;;1.20;0.65;;;15.80;71.60;;;;;;10266013;28;20031;-56
2023/04/24 00:08:23;;;;;;;1.00;0.50;;;15.80;71.60;;;;;;10283692;28;20081;-56
2023/04/24 00:13:24;;;;;;;1.42;0.70;;;15.80;71.60;;;;;;10283436;28;20089;-56
2023/04/24 00:18:25;;;;;;;1.83;0.80;;;15.80;71.60;;;;;;10283220;28;20078;-56
2023/04/24 00:23:25;;;;;;;1.73;0.80;;;15.80;71.50;;;;;;10283087;28;20109;-56
2023/04/24 00:28:26;;;;;;;2.78;1.05;;;15.80;71.50;;;;;;10282941;28;20094;-56
2023/04/24 00:33:27;;;;;;;2.03;0.52;;;15.80;71.50;;;;;;10282940;28;20031;-57
2023/04/24 00:38:27;;;;;;;0.93;0.47;;;15.80;71.50;;;;;;10282902;28;20019;-56
2023/04/24 00:43:28;;;;;;;1.00;0.50;;;15.80;71.50;;;;;;10265583;28;20121;-56
2023/04/24 00:48:29;;;;;;;1.13;0.50;;;15.70;71.40;;;;;;10265087;28;20419;-56
2023/04/24 00:53:30;;;;;;;1.42;0.40;;;15.80;71.40;;;;;;10265080;28;20030;-56
2023/04/24 00:58:31;;;;;;;0.80;0.47;;;15.70;71.30;;;;;;10282432;28;20065;-56
2023/04/24 01:03:33;;;;;;;1.15;0.57;;;15.70;71.30;;;;;;10282347;28;20023;-56
2023/04/24 01:08:35;;;;;;;2.03;0.70;;;15.70;71.30;;;;;;10282949;28;20166;-56
2023/04/24 01:13:36;;;;;;;1.38;0.85;;;15.70;71.30;;;;;;10272007;28;20146;-56
2023/04/24 01:18:38;;;;;;;1.00;0.70;;;15.70;71.30;;;;;;10289334;28;20179;-56
2023/04/24 01:23:38;;;;;;;1.83;0.80;;;15.70;71.30;;;;;;10288978;28;20027;-56
2023/04/24 01:28:39;;;;;;;1.33;0.60;;;15.70;71.30;;;;;;10288711;28;20471;-56
2023/04/24 01:33:42;;;;;;;1.73;0.82;;;15.80;71.40;;;;;;10256742;28;20034;-56
2023/04/24 01:38:43;;;;;;;1.15;0.70;;;15.70;71.30;;;;;;10288465;28;20029;-56
2023/04/24 01:43:44;;;;;;;1.70;0.80;;;15.70;71.30;;;;;;10271032;28;20027;-56
2023/04/24 01:48:45;;;;;;;0.90;0.50;;;15.70;71.30;;;;;;10288031;28;20166;-56
2023/04/24 01:53:46;;;;;;;1.10;0.40;;;15.70;71.20;;;;;;10288097;28;20035;-56
2023/04/24 01:58:49;;;;;;;0.88;0.50;;;15.70;71.20;;;;;;10287385;28;20429;-57
2023/04/24 02:03:50;;;;;;;1.35;0.70;;;15.70;71.20;;;;;;10270637;28;20172;-57
2023/04/24 02:08:50;;;;;;;1.20;0.70;;;15.70;71.30;;;;;;10287381;28;20599;-56
2023/04/24 02:13:52;;;;;;;2.35;0.98;;;15.70;71.20;;;;;;10286945;28;20165;-56
2023/04/24 02:18:52;;;;;;;0.80;0.47;;;15.70;71.30;;;;;;10286866;28;20011;-56
2023/04/24 02:23:54;;;;;;;0.93;0.50;;;15.70;71.20;;;;;;10285629;28;20050;-56
2023/04/24 02:28:54;;;;;;;1.00;0.40;;;15.70;71.20;;;;;;10286558;28;20728;-56
2023/04/24 02:33:55;;;;;;;1.90;0.50;;;15.70;71.30;;;;;;10286466;28;20041;-56
2023/04/24 02:38:56;;;;;;;1.20;0.60;;;15.60;71.20;;;;;;10268919;28;20102;-56
2023/04/24 02:43:58;;;;;;;1.50;0.50;;;15.70;71.20;;;;;;10284763;28;20019;-56
2023/04/24 02:48:59;;;;;;;1.13;0.60;;;15.60;71.20;;;;;;10285449;28;20074;-55
2023/04/24 02:53:59;;;;;;;0.93;0.50;;;15.60;71.20;;;;;;10268101;28;20110;-56
2023/04/24 02:59:00;;;;;;;2.60;0.90;;;15.60;71.20;;;;;;10285338;28;20086;-56
2023/04/24 03:04:01;;;;;;;2.00;1.02;;;15.60;71.30;;;;;;10267504;28;20057;-55
2023/04/24 03:09:03;;;;;;;0.95;0.60;;;15.60;71.20;;;;;;10284922;28;20438;-56
2023/04/24 03:14:04;;;;;;;1.27;0.70;;;15.60;71.20;;;;;;10267510;28;20556;-56
2023/04/24 03:19:04;;;;;;;2.22;0.90;;;15.60;71.20;;;;;;10284876;28;20057;-57
2023/04/24 03:24:05;;;;;;;2.35;1.00;;;15.60;71.10;;;;;;10284487;28;20015;-56
2023/04/24 03:29:06;;;;;;;0.85;0.57;;;15.60;71.20;;;;;;10284137;28;20023;-57
2023/04/24 03:34:06;;;;;;;2.03;0.90;;;15.60;71.80;;;;;;10283645;28;20155;-56
2023/04/24 03:39:07;;;;;;;1.88;1.35;;;15.60;71.10;;;;;;10283853;28;20109;-56
2023/04/24 03:44:08;;;;;;;2.92;0.75;;;15.60;71.20;;;;;;10283997;28;20123;-57
2023/04/24 03:49:08;;;;;;;0.98;0.75;;;15.60;71.20;;;;;;10283375;28;20118;-56
2023/04/24 03:54:09;;;;;;;2.00;1.27;;;15.50;71.10;;;;;;10283230;28;20161;-56
2023/04/24 03:59:10;;;;;;;1.75;1.00;;;15.50;71.10;;;;;;10283878;28;20102;-56
2023/04/24 04:04:11;;;;;;;2.67;1.80;;;15.60;71.10;;;;;;10283549;28;20044;-54
2023/04/24 04:09:12;;;;;;;3.40;1.98;;;15.50;70.80;;;;;;10283597;28;20029;-56
2023/04/24 04:14:12;;;;;;;4.45;2.65;;;15.60;70.80;;;;;;10264754;28;20023;-54
2023/04/24 04:19:13;;;;;;;7.25;4.15;;;15.50;70.60;;;;;;10281996;28;20102;-56
2023/04/24 04:24:14;;;;;;;11.27;6.85;;;15.50;70.50;;;;;;10281223;28;20106;-56
2023/04/24 04:29:15;;;;;;;8.20;5.80;;;15.60;71.00;;;;;;10263951;28;20101;-56
2023/04/24 04:34:15;;;;;;;8.65;5.60;;;15.70;70.40;;;;;;10281726;28;20050;-57
2023/04/24 04:39:18;;;;;;;8.23;6.63;;;15.90;69.80;;;;;;10263926;28;20025;-56
2023/04/24 04:44:19;;;;;;;8.23;7.18;;;16.00;69.30;;;;;;10283811;28;20414;-56
2023/04/24 04:49:21;;;;;;;19.75;16.50;;;16.00;69.00;;;;;;10287811;28;20130;-57
2023/04/24 04:54:22;;;;;;;16.70;12.45;;;16.10;70.40;;;;;;10268078;28;20027;-57
2023/04/24 04:59:22;;;;;;;14.13;11.93;;;16.20;70.60;;;;;;10288967;28;20503;-57
2023/04/24 05:04:23;;;;;;;17.45;11.55;;;16.20;70.60;;;;;;10289902;28;20585;-58
2023/04/24 05:09:27;;;;;;;18.15;11.57;;;16.20;71.30;;;;;;10272190;28;20058;-57
2023/04/24 05:14:27;;;;;;;21.63;12.15;;;16.30;71.20;;;;;;10289420;28;20754;-58
2023/04/24 05:19:28;;;;;;;19.63;12.10;;;16.40;71.00;;;;;;10289619;28;20027;-58
2023/04/24 05:24:29;;;;;;;21.48;11.57;;;16.40;71.60;;;;;;10288910;28;20110;-57
2023/04/24 05:29:33;;;;;;;20.08;11.10;;;16.50;71.50;;;;;;10288054;28;20015;-58
2023/04/24 05:34:33;;;;;;;19.90;11.77;;;16.40;71.60;;;;;;10287779;28;20031;-57
2023/04/24 05:39:35;;;;;;;22.25;12.68;;;16.40;71.80;;;;;;10286705;28;20502;-57
2023/04/24 05:44:35;;;;;;;24.80;13.13;;;16.40;71.70;;;;;;10289412;28;20023;-58
2023/04/24 05:49:36;;;;;;;23.42;12.82;;;16.30;71.70;;;;;;10269610;28;20145;-58
2023/04/24 05:54:37;;;;;;;21.80;12.25;;;16.30;72.10;;;;;;10287057;28;20049;-58
2023/04/24 05:59:38;;;;;;;25.45;12.45;;;16.10;72.30;;;;;;10269883;28;20125;-57
2023/04/24 06:04:39;;;;;;;26.05;11.93;;;16.10;72.50;;;;;;10269924;28;20385;-57
2023/04/24 06:09:40;;;;;;;24.67;11.73;;;16.10;72.40;;;;;;10269473;28;20039;-57
2023/04/24 06:14:41;;;;;;;21.75;13.77;;;16.00;72.50;;;;;;10286269;28;20629;-58
2023/04/24 06:19:41;;;;;;;38.78;13.43;;;16.00;72.70;;;;;;10285177;28;20041;-57
2023/04/24 06:24:42;;;;;;;24.38;12.02;;;16.00;73.30;;;;;;10265140;28;20382;-56
2023/04/24 06:29:43;;;;;;;31.48;12.48;;;16.00;73.40;;;;;;10257620;28;20031;-55
2023/04/24 06:34:43;;;;;;;28.42;11.48;;;16.00;73.40;;;;;;10253221;28;20027;-56
2023/04/24 06:39:44;;;;;;;24.00;10.32;;;16.00;73.30;;;;;;10280987;28;20121;-56
2023/04/24 06:44:45;;;;;;;21.42;10.25;;;16.00;73.40;;;;;;10265035;28;20114;-57
2023/04/24 06:49:46;;;;;;;25.17;12.13;;;16.00;73.60;;;;;;10266196;28;20116;-57
2023/04/24 06:54:46;;;;;;;29.75;11.98;;;16.00;73.80;;;;;;10265978;28;20102;-57
2023/04/24 06:59:47;;;;;;;28.70;11.75;;;16.00;73.90;;;;;;10281950;28;20027;-56
2023/04/24 07:04:48;;;;;;;49.42;12.18;;;16.00;73.90;;;;;;10282658;28;20097;-55
2023/04/24 07:09:50;;;;;;;36.92;12.63;;;16.00;73.90;;;;;;10281276;28;20126;-57
2023/04/24 07:14:51;;;;;;;44.55;13.60;;;16.00;73.90;;;;;;10264624;28;20015;-57
2023/04/24 07:19:51;;;;;;;45.97;11.88;;;16.00;74.00;;;;;;10263338;28;20031;-57
2023/04/24 07:24:52;;;;;;;28.13;11.35;;;16.00;73.90;;;;;;10280720;28;20117;-55
2023/04/24 07:29:53;;;;;;;39.22;11.55;;;16.00;73.80;;;;;;10282613;28;20066;-57
2023/04/24 07:34:54;;;;;;;31.38;10.52;;;15.90;73.70;;;;;;10284215;28;20097;-57
2023/04/24 07:39:55;;;;;;;29.23;10.48;;;15.90;73.70;;;;;;10282568;28;20120;-56
2023/04/24 07:44:56;;;;;;;19.67;8.73;;;15.90;73.50;;;;;;10281639;28;20037;-56
2023/04/24 07:49:56;;;;;;;14.15;8.30;;;15.80;73.40;;;;;;10281685;28;20074;-55
2023/04/24 07:55:01;;;;;;;22.67;8.80;;;15.80;73.30;;;;;;10281580;28;20023;-55
2023/04/24 08:00:06;;;;;;;14.32;7.47;;;15.70;73.30;;;;;;10281223;28;20037;-56
2023/04/24 08:05:07;;;;;;;15.50;7.35;;;15.70;73.20;;;;;;10281371;28;20110;-55
2023/04/24 08:10:10;;;;;;;11.35;6.63;;;15.70;73.10;;;;;;10281324;28;20034;-56
2023/04/24 08:15:11;;;;;;;14.32;7.53;;;15.70;73.00;;;;;;10264041;28;20027;-57
2023/04/24 08:20:13;;;;;;;17.10;8.52;;;15.70;72.90;;;;;;10286014;28;20490;-56
2023/04/24 08:25:14;;;;;;;15.32;6.22;;;15.70;72.80;;;;;;10289274;28;20057;-56
2023/04/24 08:30:14;;;;;;;18.98;8.13;;;15.60;72.80;;;;;;10290592;28;20030;-56
2023/04/24 08:35:15;;;;;;;14.45;6.68;;;15.70;72.30;;;;;;10290697;28;20139;-57
2023/04/24 08:40:16;;;;;;;15.88;6.80;;;15.70;72.30;;;;;;10290468;28;20562;-56
2023/04/24 08:45:17;;;;;;;17.95;6.25;;;15.90;71.50;;;;;;10289112;28;20058;-56
2023/04/24 08:50:18;;;;;;;15.57;7.05;;;16.30;70.30;;;;;;10271260;28;20043;-56
2023/04/24 08:55:20;;;;;;;12.13;5.82;;;16.60;69.20;;;;;;10288726;28;20033;-56
2023/04/24 09:00:21;;;;;;;11.50;5.38;;;16.90;68.10;;;;;;10287900;28;20027;-57
2023/04/24 09:05:25;;;;;;;12.15;4.57;;;17.20;67.30;;;;;;10287749;28;20043;-56
2023/04/24 09:10:27;;;;;;;18.08;5.13;;;17.30;66.90;;;;;;10287245;28;20027;-55
2023/04/24 09:15:29;;;;;;;11.73;4.75;;;17.30;67.20;;;;;;10287126;28;20113;-57
2023/04/24 09:20:30;;;;;;;12.52;5.72;;;17.20;67.90;;;;;;10287406;28;20035;-56
2023/04/24 09:25:37;;;;;;;14.65;5.95;;;17.00;68.20;;;;;;10287707;28;20027;-58
2023/04/24 09:30:38;;;;;;;13.32;5.28;;;16.90;68.90;;;;;;10269728;28;20031;-57
2023/04/24 09:35:48;;;;;;;13.23;5.10;;;16.90;68.60;;;;;;10287385;28;20027;-58
2023/04/24 09:40:48;;;;;;;12.07;4.53;;;16.80;68.90;;;;;;10285399;28;20441;-57
2023/04/24 09:45:49;;;;;;;20.63;6.35;;;16.70;69.10;;;;;;10269378;28;20058;-58
2023/04/24 09:50:52;;;;;;;21.50;5.93;;;16.70;69.80;;;;;;10286752;28;20430;-57
2023/04/24 09:55:53;;;;;;;21.83;6.90;;;16.50;70.90;;;;;;10285357;28;20513;-57
2023/04/24 10:00:56;;;;;;;28.17;6.75;;;16.40;70.90;;;;;;10267285;28;20117;-56
2023/04/24 10:06:08;;;;;;;19.15;7.05;;;16.40;71.10;;;;;;10284110;28;20089;-56
2023/04/24 10:11:10;;;;;;;16.35;5.18;;;16.40;70.80;;;;;;10286635;28;20042;-57
2023/04/24 10:16:12;;;;;;;23.48;5.55;;;16.50;70.40;;;;;;10269686;28;20603;-55
2023/04/24 10:21:14;;;;;;;26.45;6.35;;;16.50;70.70;;;;;;10285556;28;20368;-57
2023/04/24 10:26:17;;;;;;;19.67;5.70;;;16.60;70.80;;;;;;10269361;28;20030;-56
2023/04/24 10:31:19;;;;;;;21.73;6.20;;;16.80;70.60;;;;;;10286168;28;20084;-56
2023/04/24 10:36:23;;;;;;;19.30;5.22;;;16.80;70.70;;;;;;10286284;28;20043;-57
2023/04/24 10:41:26;;;;;;;24.15;5.43;;;16.80;70.70;;;;;;10268011;28;20422;-57
2023/04/24 10:46:29;;;;;;;11.88;4.97;;;16.70;70.80;;;;;;10285072;28;20034;-57
2023/04/24 10:51:52;;;;;;;40.17;8.55;;;16.70;70.70;;;;;;10283358;28;20027;-57
2023/04/24 11:02:40;;;;;;;23.38;5.88;;;16.40;71.30;;;;;;10282274;28;20038;-53
2023/04/24 11:08:22;;;;;;;19.27;5.95;;;16.30;71.40;;;;;;10480306;28;20491;-51
2023/04/24 11:13:25;;;;;;;23.10;6.35;;;16.30;70.60;;;;;;10410909;28;20148;-57
2023/04/24 11:18:25;;;;;;;21.33;5.57;;;16.30;71.00;;;;;;10437061;28;20444;-55
2023/04/24 11:23:26;;;;;;;15.00;5.00;;;16.40;70.90;;;;;;10436549;28;20022;-56
2023/04/24 11:28:28;;;;;;;21.98;6.35;;;16.50;70.50;;;;;;10424791;28;20545;-55
2023/04/24 11:33:31;;;;;;;19.80;5.00;;;16.50;70.60;;;;;;10410161;28;20025;-56
2023/04/24 11:38:31;;;;;;;16.48;4.78;;;16.40;70.40;;;;;;10413625;28;20029;-57
2023/04/24 11:43:32;;;;;;;14.77;5.00;;;16.40;70.90;;;;;;10437443;28;20033;-57
2023/04/24 11:48:39;;;;;;;12.23;5.32;;;16.30;71.00;;;;;;10438032;28;20407;-58
2023/04/24 11:53:40;;;;;;;15.65;5.45;;;16.30;71.00;;;;;;10436783;28;20702;-57
2023/04/24 11:58:41;;;;;;;13.13;4.35;;;16.20;70.20;;;;;;10438430;28;20025;-56
2023/04/24 12:03:46;;;;;;;11.88;3.03;;;16.20;71.00;;;;;;10436877;28;20132;-56
2023/04/24 12:08:47;;;;;;;13.10;4.30;;;16.20;70.60;;;;;;10436724;28;20514;-57
2023/04/24 12:13:48;;;;;;;7.30;2.97;;;16.20;70.40;;;;;;10400425;28;20082;-58
2023/04/24 12:18:51;;;;;;;14.57;2.88;;;16.10;70.30;;;;;;10370663;28;20024;-57
2023/04/24 12:23:55;;;;;;;14.27;4.88;;;16.20;70.40;;;;;;10404707;28;20069;-56
2023/04/24 12:29:01;;;;;;;10.07;3.28;;;16.30;70.20;;;;;;10367136;28;20018;-57
2023/04/24 12:34:02;;;;;;;9.10;2.70;;;16.40;70.00;;;;;;10381590;28;20085;-56
2023/04/24 12:39:03;;;;;;;10.48;2.45;;;16.40;69.70;;;;;;10367687;28;20109;-59
2023/04/24 12:44:10;;;;;;;11.18;2.75;;;16.40;69.50;;;;;;10367650;28;20083;-58
2023/04/24 12:49:10;;;;;;;7.30;2.85;;;16.30;69.40;;;;;;10367002;28;20018;-58
2023/04/24 12:54:11;;;;;;;8.65;2.45;;;16.30;69.40;;;;;;10367455;28;20113;-58
2023/04/24 12:59:12;;;;;;;7.22;2.58;;;16.20;69.30;;;;;;10367586;28;20026;-58
2023/04/24 13:04:13;;;;;;;9.05;2.80;;;16.20;69.60;;;;;;10365983;28;20553;-58
2023/04/24 13:09:13;;;;;;;6.38;2.38;;;16.20;69.30;;;;;;10369609;28;20101;-58
2023/04/24 13:14:14;;;;;;;7.25;3.00;;;16.20;69.70;;;;;;10406040;28;20069;-57
2023/04/24 13:19:15;;;;;;;9.65;2.85;;;16.20;69.60;;;;;;10373213;28;20460;-58
2023/04/24 13:24:15;;;;;;;9.38;2.55;;;16.30;69.60;;;;;;10364848;28;20485;-58
2023/04/24 13:29:16;;;;;;;5.80;2.03;;;16.30;69.10;;;;;;10373457;28;20026;-58
2023/04/24 13:34:18;;;;;;;7.97;2.65;;;16.30;69.30;;;;;;10373788;28;20575;-57
2023/04/24 13:39:19;;;;;;;8.88;2.50;;;16.30;69.20;;;;;;10364291;28;20022;-57
2023/04/24 13:44:22;;;;;;;8.30;3.55;;;16.30;69.10;;;;;;10365025;28;20033;-57
2023/04/24 13:49:27;;;;;;;11.93;2.85;;;16.40;68.70;;;;;;10364869;28;20479;-58
2023/04/24 13:54:28;;;;;;;8.15;2.83;;;16.30;69.10;;;;;;10379324;28;20021;-58
2023/04/24 13:59:28;;;;;;;15.15;2.70;;;16.40;69.70;;;;;;10377101;28;20343;-57
2023/04/24 14:04:29;;;;;;;9.77;2.47;;;16.40;69.70;;;;;;10384047;28;20045;-58
2023/04/24 14:09:30;;;;;;;5.68;2.00;;;16.50;69.20;;;;;;10375250;28;20093;-58
2023/04/24 14:14:30;;;;;;;9.95;2.58;;;16.50;68.40;;;;;;10388305;28;20108;-57
2023/04/24 14:19:31;;;;;;;7.38;2.40;;;16.50;69.20;;;;;;10392992;28;20108;-58
2023/04/24 14:24:32;;;;;;;8.07;2.65;;;16.40;69.80;;;;;;10386019;28;20030;-58
2023/04/24 14:29:32;;;;;;;11.18;2.40;;;16.40;69.90;;;;;;10376724;28;20093;-57
2023/04/24 14:34:33;;;;;;;14.25;2.45;;;16.50;69.20;;;;;;10402686;28;20128;-59
2023/04/24 14:39:34;;;;;;;14.75;3.20;;;16.50;69.20;;;;;;10376730;28;20455;-56
2023/04/24 14:44:34;;;;;;;23.40;5.10;;;16.40;70.10;;;;;;10367730;28;20148;-58
2023/04/24 14:49:35;;;;;;;18.83;3.33;;;16.40;70.30;;;;;;10389271;28;20120;-57
2023/04/24 14:54:36;;;;;;;16.23;3.78;;;16.30;70.40;;;;;;10402222;28;20029;-56
2023/04/24 14:59:36;;;;;;;26.45;5.05;;;16.40;70.40;;;;;;10392770;28;20033;-57
2023/04/24 15:04:37;;;;;;;16.92;3.85;;;16.30;70.30;;;;;;10377019;28;20077;-57
2023/04/24 15:09:38;;;;;;;21.08;3.35;;;16.30;70.30;;;;;;10385076;28;20080;-57
2023/04/24 15:14:38;;;;;;;22.52;4.45;;;16.30;70.40;;;;;;10395827;28;20156;-57
2023/04/24 15:19:39;;;;;;;13.30;3.17;;;16.30;70.60;;;;;;10402997;28;20495;-57
2023/04/24 15:24:40;;;;;;;15.90;4.53;;;16.30;70.10;;;;;;10379586;28;20195;-56
2023/04/24 15:29:41;;;;;;;9.25;3.60;;;16.30;69.80;;;;;;10370932;28;20053;-57
2023/04/24 15:34:42;;;;;;;16.23;4.45;;;16.30;69.30;;;;;;10377249;28;20033;-56
2023/04/24 15:39:45;;;;;;;22.08;6.22;;;16.30;69.10;;;;;;10389796;28;20032;-57
2023/04/24 15:44:45;;;;;;;13.25;3.83;;;16.50;71.70;;;;;;10403116;28;20037;-57
2023/04/24 15:49:46;;;;;;;14.52;4.32;;;16.60;71.20;;;;;;10401747;28;20045;-57
2023/04/24 15:54:47;;;;;;;10.27;4.00;;;16.60;71.40;;;;;;10377082;28;20030;-57
2023/04/24 15:59:47;;;;;;;8.07;2.80;;;16.70;70.50;;;;;;10370959;28;20024;-57
2023/04/24 16:04:49;;;;;;;20.30;4.47;;;16.70;70.30;;;;;;10382642;28;20120;-57
2023/04/24 16:09:50;;;;;;;16.85;3.40;;;16.80;70.50;;;;;;10370355;28;20141;-58
2023/04/24 16:14:51;;;;;;;19.17;3.70;;;16.80;70.20;;;;;;10370263;28;20034;-58
2023/04/24 16:19:51;;;;;;;24.65;5.78;;;16.70;70.30;;;;;;10368751;28;20121;-57
2023/04/24 16:24:52;;;;;;;15.68;4.22;;;16.70;70.50;;;;;;10371785;28;20220;-58
2023/04/24 16:29:53;;;;;;;23.65;4.43;;;16.50;70.80;;;;;;10383900;28;20021;-58
2023/04/24 16:34:53;;;;;;;18.75;4.70;;;16.50;70.10;;;;;;10404660;28;20089;-58
2023/04/24 16:39:54;;;;;;;31.92;6.22;;;16.70;70.60;;;;;;10409313;28;20748;-59
2023/04/24 16:44:55;;;;;;;24.90;4.57;;;16.80;70.20;;;;;;10406640;28;20029;-58
2023/04/24 16:49:56;;;;;;;16.60;6.00;;;16.80;70.30;;;;;;10388069;28;20041;-59
2023/04/24 16:54:57;;;;;;;20.67;5.55;;;16.70;71.20;;;;;;10408703;28;20040;-58
2023/04/24 16:59:58;;;;;;;29.02;5.75;;;16.50;70.70;;;;;;10390623;28;20437;-59
2023/04/24 17:04:59;;;;;;;18.90;5.38;;;16.60;70.90;;;;;;10388621;28;20041;-57
2023/04/24 17:10:00;;;;;;;13.20;4.35;;;16.70;69.90;;;;;;10407909;28;20032;-57
2023/04/24 17:15:00;;;;;;;18.33;4.60;;;16.60;69.70;;;;;;10385344;28;20677;-57
2023/04/24 17:20:01;;;;;;;16.95;4.05;;;16.60;70.40;;;;;;10376092;28;20064;-57
2023/04/24 17:25:02;;;;;;;19.80;5.93;;;16.50;71.20;;;;;;10383588;28;20481;-57
2023/04/24 17:30:03;;;;;;;21.60;5.70;;;16.50;70.40;;;;;;10384883;28;20038;-57
2023/04/24 17:35:05;;;;;;;22.30;4.72;;;16.40;71.40;;;;;;10386618;28;20029;-56
2023/04/24 17:40:07;;;;;;;17.40;4.45;;;16.40;71.40;;;;;;10375020;28;20033;-57
2023/04/24 17:45:08;;;;;;;12.88;4.03;;;16.40;71.40;;;;;;10378925;28;20030;-57
2023/04/24 17:50:09;;;;;;;13.52;3.90;;;16.30;71.50;;;;;;10393875;28;20449;-58
2023/04/24 17:55:10;;;;;;;18.30;4.63;;;16.30;71.30;;;;;;10387482;28;20056;-57
2023/04/24 18:00:13;;;;;;;14.18;5.25;;;16.30;70.90;;;;;;10385701;28;20234;-58
2023/04/24 18:05:14;;;;;;;9.85;3.40;;;16.30;71.20;;;;;;10383677;28;20056;-58
2023/04/24 18:10:15;;;;;;;11.00;3.55;;;16.30;71.30;;;;;;10402784;28;20032;-58
2023/04/24 18:15:16;;;;;;;9.85;3.80;;;16.20;71.10;;;;;;10389250;28;20025;-58
2023/04/24 18:20:18;;;;;;;9.07;3.42;;;16.20;71.20;;;;;;10386043;28;20065;-58
2023/04/24 18:25:25;;;;;;;10.32;3.63;;;16.20;71.20;;;;;;10372546;28;20034;-57
2023/04/24 18:30:27;;;;;;;10.20;3.67;;;16.20;71.30;;;;;;10383868;28;20460;-58
2023/04/24 18:35:27;;;;;;;11.20;3.65;;;16.10;71.30;;;;;;10371115;28;20242;-59
2023/04/24 18:40:28;;;;;;;13.65;4.20;;;16.10;71.30;;;;;;10378759;28;20068;-59
2023/04/24 18:45:29;;;;;;;7.90;3.40;;;16.10;71.40;;;;;;10371277;28;20033;-57
2023/04/24 18:50:30;;;;;;;8.70;3.20;;;16.10;71.40;;;;;;10384510;28;20056;-59
2023/04/24 18:55:32;;;;;;;5.97;3.30;;;16.10;71.40;;;;;;10402174;28;20033;-58
2023/04/24 19:00:33;;;;;;;9.30;3.10;;;16.10;71.50;;;;;;10402552;28;20025;-57
2023/04/24 19:05:33;;;;;;;5.80;2.83;;;16.10;71.50;;;;;;10373112;28;20042;-59
2023/04/24 19:10:35;;;;;;;11.65;2.97;;;16.10;71.30;;;;;;10374390;28;20109;-57
2023/04/24 19:15:36;;;;;;;9.13;3.75;;;16.10;71.30;;;;;;10384882;28;20045;-55
2023/04/24 19:20:36;;;;;;;11.55;3.30;;;16.10;71.10;;;;;;10374961;28;20032;-54
2023/04/24 19:25:37;;;;;;;18.95;5.40;;;16.20;70.50;;;;;;10380795;28;20044;-59
2023/04/24 19:30:39;;;;;;;8.52;3.03;;;16.30;70.10;;;;;;10376315;28;20097;-58
2023/04/24 19:35:40;;;;;;;7.43;3.20;;;16.20;70.50;;;;;;10382567;28;20050;-59
2023/04/24 19:40:40;;;;;;;7.35;3.17;;;16.10;70.70;;;;;;10366910;28;20097;-59
2023/04/24 19:45:41;;;;;;;7.65;2.90;;;16.10;71.00;;;;;;10383232;28;20513;-58
2023/04/24 19:50:42;;;;;;;9.48;3.38;;;16.00;70.90;;;;;;10383023;28;20033;-59
2023/04/24 19:55:42;;;;;;;7.13;3.50;;;16.00;71.00;;;;;;10383551;28;20622;-58
2023/04/24 20:00:44;;;;;;;7.63;2.60;;;16.00;71.00;;;;;;10375624;28;20612;-56
2023/04/24 20:05:45;;;;;;;6.35;2.83;;;16.00;70.90;;;;;;10369201;28;20191;-58
2023/04/24 20:10:45;;;;;;;6.38;3.95;;;15.90;70.90;;;;;;10394842;28;20100;-59
2023/04/24 20:15:46;;;;;;;4.55;2.20;;;15.90;70.90;;;;;;10410030;28;20105;-58
2023/04/24 20:20:47;;;;;;;7.90;2.83;;;15.90;71.00;;;;;;10410718;28;20022;-58
2023/04/24 20:25:47;;;;;;;6.40;2.83;;;15.80;70.80;;;;;;10406097;28;20030;-58
2023/04/24 20:30:48;;;;;;;6.15;2.95;;;15.80;70.80;;;;;;10371172;28;20045;-59
2023/04/24 20:35:51;;;;;;;6.53;3.08;;;15.80;70.80;;;;;;10368645;28;20026;-58
2023/04/24 20:40:51;;;;;;;5.53;2.55;;;15.80;70.80;;;;;;10369175;28;20026;-59
2023/04/24 20:45:52;;;;;;;4.05;2.10;;;15.80;70.80;;;;;;10368665;28;20129;-58
2023/04/24 20:50:53;;;;;;;3.83;2.45;;;15.80;70.80;;;;;;10367502;28;20034;-59
2023/04/24 20:55:54;;;;;;;5.60;2.67;;;15.70;70.60;;;;;;10368268;28;20029;-58
2023/04/24 21:00:55;;;;;;;6.50;2.45;;;15.70;70.60;;;;;;10368621;28;20016;-58
2023/04/24 21:05:55;;;;;;;6.00;3.17;;;15.80;70.70;;;;;;10379953;28;20551;-59
2023/04/24 21:10:56;;;;;;;4.43;1.92;;;15.70;70.60;;;;;;10366582;28;20045;-59
2023/04/24 21:15:57;;;;;;;3.85;1.42;;;15.70;70.50;;;;;;10379801;28;20034;-58
2023/04/24 21:20:58;;;;;;;5.75;2.38;;;15.70;70.50;;;;;;10367607;28;20441;-57
2023/04/24 21:25:59;;;;;;;4.32;1.70;;;15.70;70.40;;;;;;10366946;28;20038;-58
2023/04/24 21:31:00;;;;;;;4.32;2.10;;;15.70;70.40;;;;;;10393665;28;20500;-59
2023/04/24 21:36:00;;;;;;;3.33;1.48;;;15.70;70.40;;;;;;10366857;28;20026;-58
2023/04/24 21:41:02;;;;;;;2.47;1.60;;;15.70;70.30;;;;;;10369587;28;20079;-59
2023/04/24 21:46:03;;;;;;;5.65;1.30;;;15.60;70.30;;;;;;10366592;28;20080;-58
2023/04/24 21:51:03;;;;;;;2.25;1.17;;;15.60;70.40;;;;;;10364349;28;20054;-59
2023/04/24 21:56:05;;;;;;;4.53;1.65;;;15.60;70.40;;;;;;10366321;28;20540;-58
2023/04/24 22:01:05;;;;;;;2.75;1.02;;;15.60;70.30;;;;;;10365892;28;20084;-58
2023/04/24 22:06:06;;;;;;;3.05;1.30;;;15.60;70.30;;;;;;10377721;28;20570;-58
2023/04/24 22:11:07;;;;;;;3.55;2.28;;;15.60;70.30;;;;;;10365745;28;20073;-59
2023/04/24 22:16:08;;;;;;;2.47;1.33;;;15.50;70.30;;;;;;10369389;28;20056;-58
2023/04/24 22:21:09;;;;;;;3.95;1.67;;;15.50;70.30;;;;;;10365063;28;20033;-59
2023/04/24 22:26:09;;;;;;;2.22;1.52;;;15.50;70.10;;;;;;10363945;28;20104;-58
2023/04/24 22:31:10;;;;;;;3.03;1.25;;;15.50;69.90;;;;;;10390997;28;20024;-58
2023/04/24 22:36:11;;;;;;;3.90;1.70;;;15.50;69.80;;;;;;10365165;28;20365;-59
2023/04/24 22:41:12;;;;;;;2.97;1.30;;;15.50;69.80;;;;;;10364778;28;20018;-57
2023/04/24 22:46:13;;;;;;;2.80;1.52;;;15.50;70.00;;;;;;10364659;28;20058;-58
2023/04/24 22:51:14;;;;;;;2.30;1.40;;;15.50;69.90;;;;;;10364589;28;20038;-58
2023/04/24 22:56:15;;;;;;;2.67;1.08;;;15.50;70.00;;;;;;10376575;28;20018;-58
2023/04/24 23:01:16;;;;;;;3.17;1.05;;;15.50;70.10;;;;;;10364309;28;20025;-59
2023/04/24 23:06:16;;;;;;;2.25;1.13;;;15.50;70.10;;;;;;10363851;28;20054;-59
2023/04/24 23:11:18;;;;;;;2.63;1.60;;;15.50;70.20;;;;;;10364145;28;20496;-59
2023/04/24 23:16:19;;;;;;;3.40;1.60;;;15.50;70.20;;;;;;10363923;28;20025;-58
2023/04/24 23:21:20;;;;;;;5.13;1.52;;;15.50;70.10;;;;;;10363922;28;20223;-59
2023/04/24 23:26:20;;;;;;;1.38;0.82;;;15.50;70.00;;;;;;10363873;28;20413;-59
2023/04/24 23:31:21;;;;;;;2.25;1.02;;;15.50;70.00;;;;;;10390388;28;20500;-59
2023/04/24 23:36:22;;;;;;;2.53;1.13;;;15.40;70.00;;;;;;10363478;28;20056;-59
2023/04/24 23:41:22;;;;;;;2.97;1.17;;;15.40;70.10;;;;;;10363362;28;20076;-58
2023/04/24 23:46:23;;;;;;;2.58;0.70;;;15.40;70.00;;;;;;10345323;28;20026;-59
2023/04/24 23:51:24;;;;;;;2.80;1.00;;;15.40;70.00;;;;;;10363420;28;20099;-58
2023/04/24 23:56:25;;;;;;;2.35;1.10;;;15.40;70.10;;;;;;10363306;28;20123;-58
